createdAt,value
2017-08-07T00:02:12.890Z,16.60
2017-08-07T00:04:39.187Z,16.60
2017-08-07T00:07:05.475Z,16.50
2017-08-07T00:09:31.747Z,16.60
2017-08-07T00:11:58.030Z,16.70
2017-08-07T00:14:24.479Z,16.90
2017-08-07T00:16:50.809Z,16.70
2017-08-07T00:19:17.086Z,16.60
2017-08-07T00:21:43.351Z,16.50
2017-08-07T00:24:09.630Z,16.50
2017-08-07T00:26:35.893Z,16.60
2017-08-07T00:29:02.223Z,16.60
2017-08-07T00:31:28.725Z,16.40
2017-08-07T00:33:54.997Z,16.40
2017-08-07T00:36:21.300Z,16.30
2017-08-07T00:38:48.505Z,16.60
2017-08-07T00:41:14.767Z,16.60
2017-08-07T00:43:41.047Z,16.50
2017-08-07T00:46:07.338Z,16.50
2017-08-07T00:48:33.613Z,16.40
2017-08-07T00:51:00.135Z,16.30
2017-08-07T00:53:26.427Z,16.20
2017-08-07T00:55:52.706Z,16.50
2017-08-07T00:58:19.001Z,16.30
2017-08-07T01:00:45.322Z,16.40
2017-08-07T01:03:11.626Z,16.20
2017-08-07T01:05:37.916Z,16.10
2017-08-07T01:08:04.187Z,16.30
2017-08-07T01:10:30.604Z,16.10
2017-08-07T01:12:56.944Z,16.20
2017-08-07T01:15:24.112Z,16.20
2017-08-07T01:17:50.590Z,16.10
2017-08-07T01:20:17.314Z,16.10
2017-08-07T01:22:43.583Z,15.90
2017-08-07T01:25:09.891Z,15.90
2017-08-07T01:27:36.167Z,15.90
2017-08-07T01:30:02.458Z,15.60
2017-08-07T01:32:28.901Z,15.50
2017-08-07T01:34:55.248Z,14.70
2017-08-07T01:37:21.529Z,14.40
2017-08-07T01:39:47.802Z,14.80
2017-08-07T01:42:14.870Z,14.90
2017-08-07T01:44:41.148Z,14.50
2017-08-07T01:47:07.456Z,14.60
2017-08-07T01:49:33.763Z,15.00
2017-08-07T01:52:00.069Z,15.20
2017-08-07T01:54:26.382Z,15.00
2017-08-07T01:56:52.692Z,15.10
2017-08-07T01:59:18.995Z,14.70
2017-08-07T02:01:46.334Z,14.90
2017-08-07T02:04:12.626Z,14.90
2017-08-07T02:06:38.914Z,14.90
2017-08-07T02:09:05.224Z,15.00
2017-08-07T02:11:31.517Z,15.00
2017-08-07T02:13:57.818Z,14.90
2017-08-07T02:16:24.106Z,14.80
2017-08-07T02:18:50.386Z,14.50
2017-08-07T02:21:16.670Z,14.60
2017-08-07T02:23:42.961Z,14.50
2017-08-07T02:26:09.250Z,14.80
2017-08-07T02:28:35.524Z,14.60
2017-08-07T02:31:01.779Z,14.70
2017-08-07T02:33:28.096Z,14.60
2017-08-07T02:35:54.378Z,14.60
2017-08-07T02:38:20.806Z,14.50
2017-08-07T02:40:47.061Z,14.30
2017-08-07T02:43:13.318Z,14.40
2017-08-07T02:45:39.591Z,14.20
2017-08-07T02:48:05.876Z,14.20
2017-08-07T02:50:32.146Z,14.20
2017-08-07T02:52:58.425Z,14.30
2017-08-07T02:55:24.745Z,14.50
2017-08-07T02:57:50.992Z,14.30
2017-08-07T03:00:17.258Z,14.40
2017-08-07T03:02:43.548Z,14.30
2017-08-07T03:05:09.961Z,14.10
2017-08-07T03:07:36.209Z,14.00
2017-08-07T03:10:02.474Z,14.20
2017-08-07T03:12:28.746Z,14.20
2017-08-07T03:14:55.040Z,14.40
2017-08-07T03:17:21.325Z,14.40
2017-08-07T03:19:47.587Z,14.30
2017-08-07T03:22:13.864Z,14.20
2017-08-07T03:24:40.133Z,14.20
2017-08-07T03:27:06.413Z,14.20
2017-08-07T03:29:32.667Z,14.20
2017-08-07T03:31:59.006Z,14.40
2017-08-07T03:34:25.274Z,14.40
2017-08-07T03:36:51.553Z,14.40
2017-08-07T03:39:17.827Z,14.40
2017-08-07T03:41:44.116Z,14.40
2017-08-07T03:44:10.374Z,14.40
2017-08-07T03:46:37.498Z,14.50
2017-08-07T03:49:03.797Z,14.40
2017-08-07T03:51:30.069Z,14.40
2017-08-07T03:53:56.356Z,14.20
2017-08-07T03:56:22.685Z,14.40
2017-08-07T03:58:48.994Z,14.40
2017-08-07T04:01:15.286Z,14.30
2017-08-07T04:03:41.577Z,14.30
2017-08-07T04:06:07.827Z,14.30
2017-08-07T04:08:34.700Z,14.30
2017-08-07T04:11:00.978Z,14.40
2017-08-07T04:13:27.267Z,14.40
2017-08-07T04:15:53.539Z,14.30
2017-08-07T04:18:20.072Z,14.40
2017-08-07T04:20:46.377Z,14.40
2017-08-07T04:23:12.683Z,14.40
2017-08-07T04:25:38.963Z,14.40
2017-08-07T04:28:05.305Z,14.40
2017-08-07T04:30:31.816Z,14.50
2017-08-07T04:32:58.111Z,14.40
2017-08-07T04:35:25.319Z,14.40
2017-08-07T04:37:51.608Z,14.60
2017-08-07T04:40:17.893Z,14.50
2017-08-07T04:42:44.177Z,14.50
2017-08-07T04:45:10.474Z,14.60
2017-08-07T04:47:36.786Z,14.50
2017-08-07T04:50:03.095Z,14.50
2017-08-07T04:52:29.747Z,14.50
2017-08-07T04:54:56.053Z,14.50
2017-08-07T04:57:22.359Z,14.40
2017-08-07T04:59:48.689Z,14.40
2017-08-07T05:02:15.807Z,14.30
2017-08-07T05:04:42.149Z,14.40
2017-08-07T05:07:08.438Z,14.50
2017-08-07T05:09:34.749Z,14.50
2017-08-07T05:12:01.732Z,14.50
2017-08-07T05:14:29.762Z,14.50
2017-08-07T05:16:56.082Z,14.60
2017-08-07T05:19:22.385Z,14.60
2017-08-07T05:21:48.672Z,14.50
2017-08-07T05:24:14.959Z,14.50
2017-08-07T05:26:41.367Z,14.60
2017-08-07T05:29:07.647Z,14.50
2017-08-07T05:31:33.989Z,14.70
2017-08-07T05:34:00.295Z,14.70
2017-08-07T05:36:26.603Z,14.70
2017-08-07T05:39:00.161Z,14.90
2017-08-07T05:41:26.480Z,14.90
2017-08-07T05:43:52.835Z,15.10
2017-08-07T05:46:19.141Z,15.00
2017-08-07T05:48:45.493Z,15.00
2017-08-07T05:51:12.748Z,15.00
2017-08-07T05:53:39.056Z,15.10
2017-08-07T05:56:05.360Z,15.10
2017-08-07T05:58:31.695Z,15.20
2017-08-07T06:00:58.039Z,15.30
2017-08-07T06:03:25.044Z,15.30
2017-08-07T06:05:51.379Z,15.30
2017-08-07T06:08:17.677Z,15.30
2017-08-07T06:10:43.960Z,15.30
2017-08-07T06:13:10.208Z,15.30
2017-08-07T06:15:36.536Z,15.40
2017-08-07T06:18:02.902Z,15.60
2017-08-07T06:20:30.357Z,15.80
2017-08-07T06:22:56.649Z,15.90
2017-08-07T06:25:23.508Z,16.00
2017-08-07T06:27:49.789Z,16.00
2017-08-07T06:30:16.095Z,16.20
2017-08-07T06:32:42.397Z,16.40
2017-08-07T06:35:08.768Z,16.30
2017-08-07T06:37:35.042Z,16.40
2017-08-07T06:40:21.277Z,16.30
2017-08-07T06:42:47.573Z,16.40
2017-08-07T06:45:13.867Z,16.50
2017-08-07T06:47:40.189Z,16.50
2017-08-07T06:50:06.528Z,16.60
2017-08-07T06:52:32.879Z,16.60
2017-08-07T06:55:00.047Z,16.60
2017-08-07T06:57:27.954Z,16.70
2017-08-07T06:59:54.284Z,17.00
2017-08-07T07:02:20.596Z,16.90
2017-08-07T07:04:47.110Z,16.90
2017-08-07T07:07:13.426Z,17.00
2017-08-07T07:09:39.729Z,17.20
2017-08-07T07:12:06.052Z,17.20
2017-08-07T07:14:32.323Z,17.20
2017-08-07T07:16:58.625Z,17.20
2017-08-07T07:19:24.906Z,17.40
2017-08-07T07:21:51.229Z,17.30
2017-08-07T07:24:17.582Z,17.40
2017-08-07T07:26:44.897Z,17.40
2017-08-07T07:29:11.207Z,17.40
2017-08-07T07:31:37.625Z,17.50
2017-08-07T07:34:04.001Z,17.60
2017-08-07T07:36:30.343Z,17.70
2017-08-07T07:38:56.911Z,17.80
2017-08-07T07:41:23.207Z,17.90
2017-08-07T07:43:49.510Z,17.90
2017-08-07T07:46:15.830Z,18.00
2017-08-07T07:48:42.165Z,18.10
2017-08-07T07:51:08.554Z,18.20
2017-08-07T07:53:34.864Z,18.10
2017-08-07T07:56:01.162Z,18.30
2017-08-07T07:58:27.444Z,18.30
2017-08-07T08:00:53.769Z,18.30
2017-08-07T08:03:20.343Z,18.50
2017-08-07T08:05:46.661Z,18.60
2017-08-07T08:08:13.455Z,18.60
2017-08-07T08:10:39.779Z,18.60
2017-08-07T08:13:06.064Z,18.60
2017-08-07T08:15:32.471Z,18.60
2017-08-07T08:17:58.804Z,18.80
2017-08-07T08:20:25.096Z,18.80
2017-08-07T08:22:51.401Z,18.90
2017-08-07T08:25:17.693Z,18.80
2017-08-07T08:27:44.030Z,18.80
2017-08-07T08:30:11.217Z,18.80
2017-08-07T08:32:37.505Z,19.10
2017-08-07T08:35:04.606Z,19.20
2017-08-07T08:37:31.631Z,19.10
2017-08-07T08:39:57.936Z,19.20
2017-08-07T08:42:24.271Z,19.20
2017-08-07T08:44:50.582Z,19.20
2017-08-07T08:47:16.878Z,19.30
2017-08-07T08:49:43.227Z,19.40
2017-08-07T08:52:11.299Z,19.50
2017-08-07T08:54:37.621Z,19.50
2017-08-07T08:57:04.673Z,19.50
2017-08-07T08:59:31.008Z,19.60
2017-08-07T09:01:57.577Z,19.70
2017-08-07T09:04:23.977Z,19.80
2017-08-07T09:06:50.310Z,19.90
2017-08-07T09:09:16.641Z,19.80
2017-08-07T09:11:42.969Z,19.90
2017-08-07T09:14:09.999Z,19.90
2017-08-07T09:16:36.352Z,19.90
2017-08-07T09:19:02.634Z,20.00
2017-08-07T09:21:28.948Z,20.00
2017-08-07T09:23:55.248Z,20.10
2017-08-07T09:26:21.562Z,20.10
2017-08-07T09:28:47.867Z,20.10
2017-08-07T09:31:14.193Z,20.10
2017-08-07T09:33:40.515Z,20.20
2017-08-07T09:36:06.846Z,20.30
2017-08-07T09:38:33.182Z,20.40
2017-08-07T09:40:59.516Z,20.50
2017-08-07T09:43:25.818Z,20.70
2017-08-07T09:45:52.147Z,20.80
2017-08-07T09:48:18.475Z,20.80
2017-08-07T09:50:44.804Z,20.80
2017-08-07T09:53:11.112Z,21.10
2017-08-07T09:55:37.408Z,20.90
2017-08-07T09:58:03.740Z,20.90
2017-08-07T10:00:30.023Z,20.90
2017-08-07T10:02:56.702Z,21.00
2017-08-07T10:05:23.001Z,21.10
2017-08-07T10:07:49.363Z,21.00
2017-08-07T10:10:15.649Z,21.00
2017-08-07T10:12:41.959Z,20.90
2017-08-07T10:15:08.253Z,20.90
2017-08-07T10:17:35.419Z,21.10
2017-08-07T10:20:01.719Z,21.30
2017-08-07T10:22:28.054Z,21.30
2017-08-07T10:24:54.359Z,21.40
2017-08-07T10:27:20.639Z,21.50
2017-08-07T10:29:46.964Z,21.60
2017-08-07T10:32:13.239Z,21.70
2017-08-07T10:34:39.556Z,21.70
2017-08-07T10:37:05.838Z,21.40
2017-08-07T10:39:32.134Z,21.30
2017-08-07T10:41:58.432Z,21.30
2017-08-07T10:44:24.729Z,21.30
2017-08-07T10:46:51.148Z,21.20
2017-08-07T10:49:17.446Z,21.10
2017-08-07T10:51:43.779Z,21.40
2017-08-07T10:54:10.061Z,21.40
2017-08-07T10:56:36.357Z,21.40
2017-08-07T10:59:02.665Z,21.40
2017-08-07T11:01:29.622Z,21.60
2017-08-07T11:03:55.922Z,21.70
2017-08-07T11:06:22.244Z,21.80
2017-08-07T11:08:48.545Z,21.80
2017-08-07T11:11:14.887Z,21.80
2017-08-07T11:13:41.193Z,22.00
2017-08-07T11:16:07.501Z,21.80
2017-08-07T11:18:33.809Z,21.80
2017-08-07T11:21:00.146Z,22.00
2017-08-07T11:23:26.449Z,22.00
2017-08-07T11:25:59.664Z,22.30
2017-08-07T11:28:25.956Z,22.60
2017-08-07T11:30:52.244Z,22.90
2017-08-07T11:33:18.561Z,22.80
2017-08-07T11:35:44.874Z,23.10
2017-08-07T11:38:11.175Z,23.20
2017-08-07T11:40:37.466Z,23.40
2017-08-07T11:43:04.638Z,23.50
2017-08-07T11:45:30.933Z,23.20
2017-08-07T11:47:57.260Z,23.10
2017-08-07T11:50:23.549Z,22.80
2017-08-07T11:52:49.878Z,22.50
2017-08-07T11:55:16.175Z,22.70
2017-08-07T11:57:42.518Z,23.00
2017-08-07T12:00:08.821Z,23.00
2017-08-07T12:02:36.144Z,23.10
2017-08-07T12:05:02.453Z,23.00
2017-08-07T12:07:29.596Z,22.90
2017-08-07T12:09:55.904Z,23.00
2017-08-07T12:12:22.192Z,23.40
2017-08-07T12:14:48.496Z,23.40
2017-08-07T12:17:14.906Z,23.10
2017-08-07T12:19:41.192Z,23.20
2017-08-07T12:22:07.455Z,23.10
2017-08-07T12:24:33.784Z,23.10
2017-08-07T12:27:00.079Z,23.20
2017-08-07T12:29:26.372Z,23.40
2017-08-07T12:31:53.511Z,23.60
2017-08-07T12:34:19.816Z,23.30
2017-08-07T12:36:46.094Z,23.40
2017-08-07T12:39:13.387Z,23.20
2017-08-07T12:41:39.688Z,23.60
2017-08-07T12:44:05.979Z,23.60
2017-08-07T12:46:32.284Z,23.30
2017-08-07T12:48:58.557Z,23.20
2017-08-07T12:51:24.847Z,23.30
2017-08-07T12:53:51.134Z,23.60
2017-08-07T12:56:17.439Z,23.60
2017-08-07T12:58:43.730Z,23.70
2017-08-07T13:01:10.048Z,24.20
2017-08-07T13:03:36.367Z,24.40
2017-08-07T13:06:03.584Z,24.60
2017-08-07T13:08:29.878Z,24.70
2017-08-07T13:10:56.231Z,24.80
2017-08-07T13:13:22.546Z,24.90
2017-08-07T13:15:48.890Z,24.90
2017-08-07T13:18:15.228Z,24.60
2017-08-07T13:20:41.514Z,24.80
2017-08-07T13:23:07.824Z,24.90
2017-08-07T13:25:34.107Z,25.20
2017-08-07T13:28:00.416Z,25.20
2017-08-07T13:30:26.712Z,25.40
2017-08-07T13:32:53.017Z,25.60
2017-08-07T13:35:19.305Z,25.60
2017-08-07T13:37:45.622Z,25.30
2017-08-07T13:40:12.765Z,24.90
2017-08-07T13:42:39.080Z,24.70
2017-08-07T13:45:05.373Z,25.10
2017-08-07T13:47:32.454Z,25.20
2017-08-07T13:49:58.827Z,25.30
2017-08-07T13:52:26.625Z,25.30
2017-08-07T13:54:52.937Z,25.40
2017-08-07T13:57:20.060Z,25.60
2017-08-07T13:59:46.352Z,26.00
2017-08-07T14:02:12.655Z,26.40
2017-08-07T14:04:38.952Z,26.60
2017-08-07T14:07:05.893Z,26.80
2017-08-07T14:09:32.201Z,27.10
2017-08-07T14:11:58.722Z,27.00
2017-08-07T14:14:25.006Z,26.80
2017-08-07T14:16:51.296Z,27.30
2017-08-07T14:19:17.596Z,27.60
2017-08-07T14:21:43.885Z,28.40
2017-08-07T14:24:11.169Z,28.50
2017-08-07T14:26:37.467Z,28.10
2017-08-07T14:29:04.428Z,27.40
2017-08-07T14:31:30.887Z,27.50
2017-08-07T14:33:57.217Z,27.90
2017-08-07T14:36:23.519Z,27.80
2017-08-07T14:38:49.834Z,27.50
2017-08-07T14:41:16.147Z,27.70
2017-08-07T14:43:42.459Z,27.50
2017-08-07T14:46:09.661Z,27.80
2017-08-07T14:48:35.989Z,28.80
2017-08-07T14:51:02.296Z,29.30
2017-08-07T14:53:28.589Z,28.70
2017-08-07T14:55:54.885Z,28.80
2017-08-07T14:58:21.184Z,29.10
2017-08-07T15:00:47.500Z,29.90
2017-08-07T15:03:13.818Z,30.80
2017-08-07T15:05:40.149Z,31.20
2017-08-07T15:08:06.470Z,32.00
2017-08-07T15:10:32.809Z,32.70
2017-08-07T15:12:59.109Z,33.10
2017-08-07T15:15:25.398Z,32.60
2017-08-07T15:17:52.336Z,31.20
2017-08-07T15:20:18.628Z,30.20
2017-08-07T15:22:44.950Z,29.80
2017-08-07T15:25:11.818Z,28.90
2017-08-07T15:27:38.129Z,28.00
2017-08-07T15:30:04.439Z,28.30
2017-08-07T15:32:30.709Z,29.00
2017-08-07T15:34:56.997Z,28.50
2017-08-07T15:37:23.266Z,27.80
2017-08-07T15:39:50.445Z,27.40
2017-08-07T15:42:16.741Z,27.00
2017-08-07T15:44:43.036Z,27.00
2017-08-07T15:47:09.314Z,27.00
2017-08-07T15:49:35.612Z,27.00
2017-08-07T15:52:01.896Z,29.10
2017-08-07T15:54:28.210Z,30.90
2017-08-07T15:56:54.485Z,32.70
2017-08-07T15:59:21.665Z,33.70
2017-08-07T16:01:47.957Z,33.80
2017-08-07T16:04:14.238Z,33.70
2017-08-07T16:06:40.628Z,33.40
2017-08-07T16:09:06.905Z,33.60
2017-08-07T16:11:33.197Z,33.00
2017-08-07T16:13:59.506Z,30.90
2017-08-07T16:16:25.789Z,31.10
2017-08-07T16:18:52.090Z,31.30
2017-08-07T16:21:18.371Z,31.70
2017-08-07T16:23:44.678Z,31.60
2017-08-07T16:26:10.986Z,31.70
2017-08-07T16:28:38.040Z,31.00
2017-08-07T16:31:04.397Z,31.00
2017-08-07T16:33:30.731Z,30.00
2017-08-07T16:35:57.029Z,28.80
2017-08-07T16:38:30.240Z,28.60
2017-08-07T16:40:56.558Z,29.00
2017-08-07T16:43:22.831Z,29.30
2017-08-07T16:45:49.135Z,29.70
2017-08-07T16:48:15.611Z,30.50
2017-08-07T16:50:41.966Z,31.20
2017-08-07T16:53:08.281Z,31.50
2017-08-07T16:55:34.572Z,32.50
2017-08-07T16:58:00.881Z,33.10
2017-08-07T17:00:27.208Z,33.40
2017-08-07T17:02:53.493Z,33.30
2017-08-07T17:05:19.804Z,32.70
2017-08-07T17:07:46.124Z,32.30
2017-08-07T17:10:12.397Z,31.80
2017-08-07T17:12:38.753Z,31.90
2017-08-07T17:15:05.083Z,32.10
2017-08-07T17:17:31.401Z,31.70
2017-08-07T17:19:57.709Z,31.30
2017-08-07T17:22:24.054Z,31.80
2017-08-07T17:24:50.351Z,31.90
2017-08-07T17:27:16.665Z,32.10
2017-08-07T17:29:42.958Z,30.90
2017-08-07T17:32:09.256Z,30.00
2017-08-07T17:34:35.540Z,29.30
2017-08-07T17:37:01.838Z,28.70
2017-08-07T17:39:28.150Z,27.90
2017-08-07T17:41:54.457Z,27.60
2017-08-07T17:44:20.750Z,27.00
2017-08-07T17:46:47.040Z,27.10
2017-08-07T17:49:13.349Z,27.00
2017-08-07T17:51:39.648Z,26.50
2017-08-07T17:54:06.508Z,26.10
2017-08-07T17:56:32.880Z,25.60
2017-08-07T17:58:59.234Z,25.60
2017-08-07T18:01:25.501Z,25.60
2017-08-07T18:03:51.811Z,25.20
2017-08-07T18:06:18.102Z,25.00
2017-08-07T18:08:44.466Z,24.90
2017-08-07T18:11:13.657Z,24.80
2017-08-07T18:13:39.981Z,24.70
2017-08-07T18:16:06.310Z,24.70
2017-08-07T18:18:32.610Z,24.60
2017-08-07T18:20:58.927Z,24.40
2017-08-07T18:23:25.229Z,24.30
2017-08-07T18:25:51.545Z,24.40
2017-08-07T18:28:18.506Z,24.60
2017-08-07T18:30:44.821Z,24.60
2017-08-07T18:33:11.086Z,24.50
2017-08-07T18:35:37.445Z,24.40
2017-08-07T18:38:03.762Z,24.10
2017-08-07T18:40:30.071Z,23.80
2017-08-07T18:42:56.369Z,23.80
2017-08-07T18:45:22.669Z,23.60
2017-08-07T18:47:49.927Z,23.60
2017-08-07T18:50:16.329Z,23.60
2017-08-07T18:52:42.729Z,23.40
2017-08-07T18:55:09.040Z,23.20
2017-08-07T18:57:35.348Z,23.10
2017-08-07T19:00:01.644Z,23.00
2017-08-07T19:02:27.943Z,22.90
2017-08-07T19:04:54.250Z,22.90
2017-08-07T19:07:20.572Z,22.80
2017-08-07T19:09:46.864Z,22.80
2017-08-07T19:12:13.431Z,22.60
2017-08-07T19:14:39.717Z,22.50
2017-08-07T19:17:05.997Z,22.40
2017-08-07T19:19:33.011Z,22.20
2017-08-07T19:21:59.310Z,22.10
2017-08-07T19:24:25.595Z,22.10
2017-08-07T19:26:52.149Z,21.90
2017-08-07T19:29:18.520Z,22.00
2017-08-07T19:31:44.803Z,22.20
2017-08-07T19:34:11.420Z,22.00
2017-08-07T19:36:37.699Z,21.90
2017-08-07T19:39:03.981Z,21.80
2017-08-07T19:41:30.258Z,21.80
2017-08-07T19:43:56.532Z,21.80
2017-08-07T19:46:22.944Z,21.70
2017-08-07T19:48:49.207Z,21.60
2017-08-07T19:51:15.535Z,21.50
2017-08-07T19:53:42.532Z,21.60
2017-08-07T19:56:08.898Z,21.80
2017-08-07T19:58:35.207Z,21.80
2017-08-07T20:01:01.573Z,21.70
2017-08-07T20:03:27.941Z,21.40
2017-08-07T20:05:54.290Z,21.50
2017-08-07T20:08:20.606Z,21.50
2017-08-07T20:10:47.617Z,21.40
2017-08-07T20:13:14.023Z,21.50
2017-08-07T20:15:40.314Z,21.40
2017-08-07T20:18:06.608Z,21.30
2017-08-07T20:20:33.985Z,21.30
2017-08-07T20:23:01.066Z,21.20
2017-08-07T20:25:27.354Z,21.20
2017-08-07T20:27:53.615Z,21.10
2017-08-07T20:30:20.898Z,21.00
2017-08-07T20:32:47.933Z,21.30
2017-08-07T20:35:14.276Z,21.30
2017-08-07T20:37:47.400Z,21.20
2017-08-07T20:40:13.694Z,21.00
2017-08-07T20:42:40.026Z,21.00
2017-08-07T20:45:06.360Z,20.70
2017-08-07T20:47:32.627Z,20.70
2017-08-07T20:49:58.906Z,21.00
2017-08-07T20:52:25.195Z,20.90
2017-08-07T20:54:51.516Z,20.70
2017-08-07T20:57:17.817Z,20.70
2017-08-07T20:59:44.145Z,20.70
2017-08-07T21:02:10.425Z,20.70
2017-08-07T21:04:36.703Z,20.50
2017-08-07T21:07:03.618Z,20.60
2017-08-07T21:09:29.883Z,20.70
2017-08-07T21:11:56.226Z,20.70
2017-08-07T21:14:22.553Z,20.30
2017-08-07T21:16:48.834Z,20.40
2017-08-07T21:19:16.061Z,20.50
2017-08-07T21:21:42.353Z,20.40
2017-08-07T21:24:08.629Z,20.30
2017-08-07T21:26:34.948Z,20.40
2017-08-07T21:29:01.214Z,20.50
2017-08-07T21:31:27.482Z,20.20
2017-08-07T21:33:53.764Z,20.20
2017-08-07T21:36:21.099Z,20.30
2017-08-07T21:38:47.397Z,20.20
2017-08-07T21:41:13.680Z,20.10
2017-08-07T21:43:40.014Z,20.20
2017-08-07T21:46:06.884Z,20.10
2017-08-07T21:48:33.190Z,20.10
2017-08-07T21:50:59.474Z,20.10
2017-08-07T21:53:25.728Z,20.10
2017-08-07T21:55:52.009Z,20.10
2017-08-07T21:58:18.293Z,20.00
2017-08-07T22:00:44.580Z,19.80
2017-08-07T22:03:10.843Z,19.80
2017-08-07T22:05:37.129Z,19.80
2017-08-07T22:08:03.409Z,19.90
2017-08-07T22:10:29.679Z,20.10
2017-08-07T22:12:55.941Z,19.80
2017-08-07T22:15:22.229Z,19.70
2017-08-07T22:17:48.504Z,19.90
2017-08-07T22:20:14.790Z,19.70
2017-08-07T22:22:41.093Z,19.70
2017-08-07T22:25:07.399Z,19.50
2017-08-07T22:27:33.713Z,19.40
2017-08-07T22:30:00.006Z,19.50
2017-08-07T22:32:26.349Z,19.50
2017-08-07T22:34:52.673Z,19.30
2017-08-07T22:37:19.055Z,19.20
2017-08-07T22:39:47.445Z,19.30
2017-08-07T22:42:13.728Z,19.30
2017-08-07T22:44:39.990Z,19.40
2017-08-07T22:47:06.269Z,19.20
2017-08-07T22:49:32.626Z,19.30
2017-08-07T22:51:58.936Z,19.40
2017-08-07T22:54:25.209Z,19.20
2017-08-07T22:56:51.500Z,19.10
2017-08-07T22:59:17.771Z,19.10
2017-08-07T23:01:44.878Z,19.20
2017-08-07T23:04:11.157Z,19.30
2017-08-07T23:06:37.482Z,19.20
2017-08-07T23:09:04.234Z,19.20
2017-08-07T23:11:30.512Z,19.00
2017-08-07T23:13:56.817Z,18.80
2017-08-07T23:16:23.176Z,18.90
2017-08-07T23:18:49.512Z,18.90
2017-08-07T23:21:15.799Z,18.90
2017-08-07T23:23:42.079Z,19.00
2017-08-07T23:26:08.849Z,18.80
2017-08-07T23:28:35.138Z,18.70
2017-08-07T23:31:01.416Z,18.60
2017-08-07T23:33:27.670Z,18.50
2017-08-07T23:35:53.975Z,18.50
2017-08-07T23:38:20.235Z,18.50
2017-08-07T23:40:46.513Z,18.40
2017-08-07T23:43:12.800Z,18.40
2017-08-07T23:45:39.073Z,18.40
2017-08-07T23:48:06.210Z,18.40
2017-08-07T23:50:32.493Z,18.60
2017-08-07T23:52:58.772Z,18.70
2017-08-07T23:55:25.065Z,18.60
2017-08-07T23:57:51.391Z,18.60
